Time;durP1;ratioP1;P1;durP2;ratioP2;P2;SDS_P1;SDS_P2;PMS_P1;PMS_P2;Temp;Humidity;BMP_temperature;BMP_pressure;BME280_temperature;BME280_humidity;BME280_pressure;Samples;Min_cycle;Max_cycle;Signal;HPM_P1;HPM_P2
2021/09/14 00:00:07;;;;;;;7.10;6.20;;;14.10;99.90;;;;;;5079277;28;20453;-82
2021/09/14 00:02:33;;;;;;;6.33;5.73;;;13.90;99.90;;;;;;5081749;28;20424;-83
2021/09/14 00:05:10;;;;;;;9.40;7.23;;;13.90;99.90;;;;;;5199470;22;20513;-84
2021/09/14 00:08:06;;;;;;;7.90;5.47;;;13.80;99.90;;;;;;5075291;28;20487;-85
2021/09/14 00:14:32;;;;;;;8.40;6.30;;;14.10;99.90;;;;;;5075933;28;20450;-86
2021/09/14 00:17:07;;;;;;;8.50;6.40;;;13.90;99.90;;;;;;5060012;28;20468;-86
2021/09/14 00:19:47;;;;;;;9.23;6.50;;;;;;;;;;5059022;28;20480;-86
2021/09/14 00:26:05;;;;;;;10.23;5.77;;;14.60;99.90;;;;;;4980030;28;20438;-85
2021/09/14 00:29:24;;;;;;;8.60;7.20;;;14.10;99.90;;;;;;5053751;28;20820;-86
2021/09/14 00:32:10;;;;;;;10.57;7.40;;;13.40;99.90;;;;;;5059768;28;20482;-86
2021/09/14 00:35:11;;;;;;;7.83;6.67;;;13.70;99.90;;;;;;5061218;28;20474;-85
2021/09/14 00:38:17;;;;;;;10.60;6.80;;;13.70;99.90;;;;;;5061097;28;20461;-86
2021/09/14 00:41:44;;;;;;;6.87;5.87;;;13.70;99.90;;;;;;5062555;28;20453;-86
2021/09/14 00:47:28;;;;;;;7.53;6.60;;;13.70;99.90;;;;;;5039660;28;20454;-86
2021/09/14 00:50:31;;;;;;;;;;;;;;;;;;;;;
2021/09/14 00:56:45;;;;;;;10.60;7.33;;;13.90;99.90;;;;;;5069922;28;20474;-86
2021/09/14 00:59:52;;;;;;;10.70;6.53;;;12.70;99.90;;;;;;4981790;28;20466;-86
2021/09/14 01:03:18;;;;;;;11.47;6.27;;;14.00;99.90;;;;;;4981403;28;20445;-86
2021/09/14 01:06:23;;;;;;;;;;;;;;;;;;;;;
2021/09/14 01:09:08;;;;;;;8.50;7.00;;;13.90;99.90;;;;;;4978853;28;20563;-86
2021/09/14 01:15:26;;;;;;;8.67;6.40;;;13.20;99.90;;;;;;5045799;28;20453;-86
2021/09/14 01:26:46;;;;;;;16.47;8.43;;;12.90;99.90;;;;;;5063602;28;20492;-86
2021/09/14 01:32:39;;;;;;;;;;;;;;;;;;;;;
2021/09/14 01:41:03;;;;;;;10.20;8.00;;;13.70;99.90;;;;;;5064880;28;20559;-85
2021/09/14 01:43:40;;;;;;;10.43;7.43;;;;;;;;;;5066135;28;20465;-86
2021/09/14 01:47:02;;;;;;;10.87;7.07;;;13.70;99.90;;;;;;5064174;28;20480;-86
2021/09/14 01:49:54;;;;;;;13.23;7.73;;;13.80;99.90;;;;;;5064256;28;20449;-86
2021/09/14 01:52:54;;;;;;;13.80;7.30;;;13.70;99.90;;;;;;5065519;28;20491;-86
2021/09/14 01:58:29;;;;;;;8.10;6.80;;;13.80;99.90;;;;;;5061723;28;20446;-85
2021/09/14 02:01:28;;;;;;;8.70;6.10;;;13.80;99.90;;;;;;5065218;28;20457;-85
2021/09/14 02:04:12;;;;;;;9.60;7.60;;;13.70;99.90;;;;;;5065072;28;20430;-85
2021/09/14 02:41:59;;;;;;;6.53;5.83;;;13.40;99.90;;;;;;5062265;28;20417;-85
2021/09/14 02:45:02;;;;;;;10.83;6.87;;;13.60;99.90;;;;;;5055091;28;20461;-86
2021/09/14 03:00:05;;;;;;;9.63;7.20;;;13.30;99.90;;;;;;4992232;28;20457;-86
2021/09/14 03:14:40;;;;;;;9.73;6.57;;;13.10;99.90;;;;;;5064083;28;20476;-86
2021/09/14 03:17:25;;;;;;;9.30;7.13;;;13.20;99.90;;;;;;5071621;28;20493;-86
2021/09/14 03:25:38;;;;;;;12.33;7.50;;;13.40;99.90;;;;;;5077643;28;20465;-86
2021/09/14 03:31:18;;;;;;;10.37;7.63;;;13.20;99.90;;;;;;5061465;28;20442;-86
2021/09/14 03:34:35;;;;;;;12.13;6.90;;;13.70;99.90;;;;;;5077368;28;20456;-86
2021/09/14 03:37:06;;;;;;;10.80;6.87;;;;;;;;;;5077446;28;20449;-85
2021/09/14 03:39:47;;;;;;;8.53;6.23;;;13.20;99.90;;;;;;5068111;28;20461;-87
2021/09/14 03:42:27;;;;;;;10.83;7.27;;;13.30;99.90;;;;;;5062120;28;20451;-87
2021/09/14 03:48:07;;;;;;;9.20;7.20;;;13.10;99.90;;;;;;5057720;28;20439;-86
2021/09/14 04:00:01;;;;;;;9.10;6.60;;;13.80;99.90;;;;;;5056571;28;20446;-86
2021/09/14 04:03:00;;;;;;;7.97;6.30;;;12.20;99.90;;;;;;5057152;28;20502;-86
2021/09/14 04:11:48;;;;;;;9.23;6.90;;;13.10;99.90;;;;;;5061692;28;20529;-84
2021/09/14 04:17:49;;;;;;;10.77;6.90;;;13.10;99.90;;;;;;5060790;28;20506;-86
2021/09/14 04:20:46;;;;;;;;;;;;;;;;;;;;;
2021/09/14 04:24:01;;;;;;;;;;;;;;;;;;;;;
2021/09/14 04:27:15;;;;;;;9.33;7.73;;;12.90;99.90;;;;;;5067014;28;20431;-87
2021/09/14 04:30:09;;;;;;;10.20;7.60;;;12.80;99.90;;;;;;5061890;28;20449;-87
2021/09/14 04:33:04;;;;;;;13.07;8.40;;;12.80;99.90;;;;;;5065799;28;20811;-86
2021/09/14 04:38:41;;;;;;;17.60;9.23;;;12.80;99.90;;;;;;5066751;28;20453;-87
2021/09/14 04:41:50;;;;;;;15.73;8.90;;;12.90;99.90;;;;;;5066011;28;20440;-87
2021/09/14 04:44:36;;;;;;;15.07;9.37;;;12.90;99.90;;;;;;5061534;28;20446;-87
2021/09/14 04:47:55;;;;;;;11.50;8.33;;;13.60;99.90;;;;;;5071628;28;20407;-85
2021/09/14 04:50:34;;;;;;;12.10;8.03;;;12.80;99.90;;;;;;5074200;28;20442;-85
2021/09/14 04:53:53;;;;;;;12.53;8.50;;;12.70;99.90;;;;;;5073716;28;20489;-85
2021/09/14 04:56:35;;;;;;;12.00;7.57;;;12.80;99.90;;;;;;4992362;28;20577;-87
2021/09/14 04:59:18;;;;;;;11.00;7.80;;;;;;;;;;5069289;28;20472;-86
2021/09/14 05:10:51;;;;;;;9.90;6.70;;;12.80;99.90;;;;;;5072822;28;20492;-87
2021/09/14 05:14:03;;;;;;;14.20;6.73;;;13.00;99.90;;;;;;5078235;28;20483;-85
2021/09/14 05:16:43;;;;;;;11.13;7.90;;;13.00;99.90;;;;;;5077447;28;20474;-85
2021/09/14 05:23:20;;;;;;;8.90;7.20;;;13.50;99.90;;;;;;5022985;28;20451;-85
2021/09/14 06:03:22;;;;;;;10.43;6.87;;;14.00;99.90;;;;;;5038577;28;20398;-85
2021/09/14 06:06:40;;;;;;;10.17;7.27;;;12.10;99.90;;;;;;5082417;28;20492;-85
2021/09/14 06:14:51;;;;;;;20.43;8.80;;;14.30;99.90;;;;;;5082236;28;20811;-82
2021/09/14 06:17:17;;;;;;;9.20;6.00;;;13.70;99.90;;;;;;5082827;28;20445;-83
2021/09/14 06:19:45;;;;;;;11.00;6.67;;;14.10;99.90;;;;;;5083950;28;20418;-82
2021/09/14 06:22:12;;;;;;;59.43;14.90;;;13.80;99.90;;;;;;5086571;28;20528;-83
2021/09/14 06:24:39;;;;;;;14.10;6.90;;;13.80;99.90;;;;;;5063994;28;20466;-83
2021/09/14 06:27:05;;;;;;;11.30;7.70;;;14.00;99.90;;;;;;5077232;28;20883;-82
2021/09/14 06:29:32;;;;;;;14.10;7.30;;;14.00;99.90;;;;;;5075418;28;20442;-79
2021/09/14 06:31:59;;;;;;;8.70;6.40;;;14.20;99.90;;;;;;5069031;28;20872;-82
2021/09/14 06:34:25;;;;;;;7.40;5.83;;;14.20;99.90;;;;;;5062431;28;20490;-83
2021/09/14 06:36:53;;;;;;;8.73;5.10;;;14.30;99.90;;;;;;5060990;28;20446;-83
2021/09/14 06:39:20;;;;;;;7.57;4.90;;;14.30;99.90;;;;;;5061251;28;20446;-83
2021/09/14 06:41:46;;;;;;;5.70;4.50;;;14.40;99.90;;;;;;5061969;28;20443;-83
2021/09/14 06:44:13;;;;;;;8.50;4.20;;;14.50;99.90;;;;;;5062449;28;20470;-82
2021/09/14 06:46:39;;;;;;;11.07;5.13;;;14.60;99.90;;;;;;5062301;28;20446;-82
2021/09/14 06:49:06;;;;;;;4.40;4.00;;;14.60;99.90;;;;;;5059950;28;20446;-83
2021/09/14 06:51:32;;;;;;;6.87;3.70;;;14.70;99.90;;;;;;5059193;28;21007;-83
2021/09/14 06:54:00;;;;;;;3.70;3.40;;;14.70;99.90;;;;;;5060221;28;20471;-82
2021/09/14 06:56:27;;;;;;;6.80;4.83;;;14.80;99.90;;;;;;5060503;28;20420;-83
2021/09/14 06:58:54;;;;;;;3.87;3.50;;;14.90;99.90;;;;;;5060377;28;20421;-83
2021/09/14 07:01:21;;;;;;;5.00;3.60;;;14.90;99.90;;;;;;5061509;28;20454;-82
2021/09/14 07:03:48;;;;;;;4.30;3.90;;;15.00;99.90;;;;;;5059665;28;20482;-83
2021/09/14 07:06:14;;;;;;;7.10;4.13;;;15.00;99.90;;;;;;5060835;28;20450;-83
2021/09/14 07:08:41;;;;;;;4.73;4.00;;;14.90;99.90;;;;;;5060054;28;20476;-83
2021/09/14 07:11:09;;;;;;;5.90;3.80;;;14.90;99.90;;;;;;5060783;28;20450;-83
2021/09/14 07:13:35;;;;;;;6.73;3.10;;;14.90;99.90;;;;;;5079301;28;20776;-81
2021/09/14 07:16:02;;;;;;;5.50;4.87;;;14.90;99.90;;;;;;5099845;28;20424;-82
2021/09/14 07:18:28;;;;;;;5.33;3.40;;;15.00;99.90;;;;;;5099855;28;20455;-83
2021/09/14 07:20:55;;;;;;;6.63;3.53;;;15.10;99.90;;;;;;5099631;28;20455;-81
2021/09/14 07:23:22;;;;;;;4.60;3.33;;;15.20;99.90;;;;;;5099154;28;20473;-79
2021/09/14 07:25:49;;;;;;;3.50;3.20;;;14.90;99.90;;;;;;5099850;28;20418;-80
2021/09/14 07:28:17;;;;;;;4.07;3.67;;;15.20;99.90;;;;;;5098036;28;20460;-82
2021/09/14 07:30:44;;;;;;;5.77;4.20;;;15.20;99.90;;;;;;5091132;28;20468;-82
2021/09/14 07:33:12;;;;;;;7.27;3.77;;;15.20;99.90;;;;;;5081542;28;20488;-83
2021/09/14 07:35:38;;;;;;;4.50;3.60;;;15.30;99.90;;;;;;5079100;28;20856;-84
2021/09/14 07:38:05;;;;;;;7.57;4.33;;;15.40;99.90;;;;;;5083372;28;20449;-84
2021/09/14 07:40:32;;;;;;;5.60;4.23;;;15.50;99.90;;;;;;5079509;28;20509;-83
2021/09/14 07:42:59;;;;;;;4.53;4.03;;;15.50;99.90;;;;;;5080940;28;20488;-83
2021/09/14 07:45:27;;;;;;;6.10;5.30;;;15.60;99.90;;;;;;5084430;28;20498;-83
2021/09/14 07:47:53;;;;;;;5.13;4.20;;;15.70;99.90;;;;;;5081831;28;20449;-83
2021/09/14 07:50:21;;;;;;;4.60;4.20;;;15.80;99.90;;;;;;5079604;28;20476;-83
2021/09/14 07:52:48;;;;;;;5.23;4.00;;;15.80;99.90;;;;;;5079869;28;20864;-83
2021/09/14 07:55:15;;;;;;;6.97;3.93;;;15.80;99.90;;;;;;5085676;28;20441;-82
2021/09/14 07:57:41;;;;;;;7.03;4.40;;;15.50;99.90;;;;;;5078037;28;20449;-81
2021/09/14 08:00:09;;;;;;;7.70;3.60;;;15.90;99.90;;;;;;5082258;28;20441;-81
2021/09/14 08:02:37;;;;;;;5.37;3.20;;;15.90;99.90;;;;;;5079895;28;20489;-82
2021/09/14 08:05:05;;;;;;;9.40;3.40;;;15.90;99.90;;;;;;5079038;28;20485;-83
2021/09/14 08:07:31;;;;;;;4.50;4.10;;;16.00;99.90;;;;;;5077981;28;20449;-82
2021/09/14 08:09:58;;;;;;;4.33;3.40;;;16.00;99.90;;;;;;5090331;28;20450;-81
2021/09/14 08:12:25;;;;;;;3.20;2.90;;;16.10;99.90;;;;;;5084936;28;20441;-83
2021/09/14 08:14:51;;;;;;;3.60;3.20;;;16.20;99.90;;;;;;5078989;28;20471;-83
2021/09/14 08:17:18;;;;;;;5.13;4.13;;;16.30;99.90;;;;;;5082532;28;20494;-81
2021/09/14 08:19:46;;;;;;;7.77;4.93;;;16.30;99.90;;;;;;5089588;28;20445;-82
2021/09/14 08:22:13;;;;;;;9.63;3.73;;;16.40;99.90;;;;;;5087370;28;20441;-83
2021/09/14 08:24:41;;;;;;;3.80;3.10;;;16.40;99.90;;;;;;5079088;28;20891;-84
2021/09/14 08:27:08;;;;;;;5.70;3.43;;;16.40;99.90;;;;;;5081015;28;20475;-83
2021/09/14 08:29:34;;;;;;;3.40;2.90;;;16.50;99.90;;;;;;5082625;28;20476;-83
2021/09/14 08:32:01;;;;;;;3.13;2.83;;;16.50;99.90;;;;;;5080661;28;20445;-83
2021/09/14 08:34:27;;;;;;;6.80;4.10;;;16.70;99.90;;;;;;5080729;28;20784;-83
2021/09/14 08:36:55;;;;;;;9.97;4.10;;;16.70;99.90;;;;;;5084057;28;20518;-82
2021/09/14 08:39:22;;;;;;;5.23;3.03;;;16.80;99.90;;;;;;5083901;28;20547;-83
2021/09/14 08:41:49;;;;;;;5.03;2.70;;;16.70;99.90;;;;;;5092739;28;20467;-80
2021/09/14 08:44:15;;;;;;;5.70;3.60;;;16.80;99.90;;;;;;5097259;28;20507;-80
2021/09/14 08:46:43;;;;;;;3.70;2.70;;;16.80;99.90;;;;;;5092523;28;20445;-83
2021/09/14 08:49:11;;;;;;;3.57;3.27;;;16.90;99.90;;;;;;5083624;28;20449;-83
2021/09/14 08:51:38;;;;;;;6.40;4.10;;;16.90;99.90;;;;;;5084115;28;20467;-83
2021/09/14 08:54:06;;;;;;;4.43;3.23;;;17.00;99.90;;;;;;5083654;28;20466;-83
2021/09/14 08:56:32;;;;;;;5.10;3.90;;;17.10;99.90;;;;;;5082504;28;20452;-83
2021/09/14 08:59:00;;;;;;;4.53;3.80;;;17.10;99.90;;;;;;5083221;28;20471;-83
2021/09/14 09:01:28;;;;;;;4.90;3.67;;;17.20;99.90;;;;;;5083350;28;20475;-82
2021/09/14 09:03:58;;;;;;;5.23;3.03;;;17.20;99.90;;;;;;5082478;28;20484;-83
2021/09/14 09:06:32;;;;;;;4.33;3.10;;;17.20;99.90;;;;;;5082724;28;20445;-83
2021/09/14 09:09:09;;;;;;;6.77;3.40;;;17.30;99.90;;;;;;5083031;28;20436;-83
2021/09/14 09:11:36;;;;;;;5.20;4.40;;;17.40;99.90;;;;;;5082929;28;20832;-83
2021/09/14 09:14:04;;;;;;;7.50;4.30;;;17.50;99.90;;;;;;5093645;28;20545;-82
2021/09/14 09:16:31;;;;;;;4.97;4.43;;;17.50;99.90;;;;;;5094376;28;20445;-83
2021/09/14 09:19:00;;;;;;;4.77;4.10;;;17.60;99.90;;;;;;5093663;28;20457;-82
2021/09/14 09:21:29;;;;;;;4.53;4.10;;;17.60;99.90;;;;;;5084584;28;20408;-83
2021/09/14 09:23:57;;;;;;;4.50;3.47;;;17.60;99.90;;;;;;5084924;28;20540;-83
2021/09/14 09:26:33;;;;;;;6.03;4.03;;;17.70;99.90;;;;;;5085394;28;20543;-82
2021/09/14 09:29:00;;;;;;;4.40;4.00;;;17.70;99.90;;;;;;5084064;28;20400;-82
2021/09/14 09:31:27;;;;;;;4.50;3.60;;;17.70;99.90;;;;;;5085832;28;20459;-81
2021/09/14 09:34:01;;;;;;;12.63;4.00;;;17.50;99.90;;;;;;5089867;28;20495;-82
2021/09/14 09:36:31;;;;;;;3.67;3.37;;;17.70;99.90;;;;;;5095687;28;20439;-83
2021/09/14 09:38:58;;;;;;;6.07;3.87;;;17.80;99.90;;;;;;5085246;28;20449;-82
2021/09/14 09:41:26;;;;;;;6.17;4.23;;;17.80;99.90;;;;;;5091677;28;20454;-82
2021/09/14 09:44:05;;;;;;;5.37;3.77;;;17.90;99.90;;;;;;5097617;28;20491;-82
2021/09/14 09:46:31;;;;;;;5.60;3.40;;;17.90;99.90;;;;;;5082697;28;20437;-82
2021/09/14 09:49:01;;;;;;;4.20;3.47;;;17.90;99.90;;;;;;5082000;28;20435;-83
2021/09/14 09:51:28;;;;;;;7.10;3.87;;;18.00;99.90;;;;;;5083335;28;20460;-80
2021/09/14 09:53:55;;;;;;;8.33;3.93;;;17.90;99.90;;;;;;5086366;28;20483;-83
2021/09/14 09:56:23;;;;;;;6.80;3.47;;;18.00;99.90;;;;;;5087090;28;20504;-82
2021/09/14 09:58:51;;;;;;;6.10;3.47;;;18.10;99.90;;;;;;5086519;28;21007;-83
2021/09/14 10:01:21;;;;;;;8.30;3.50;;;18.10;99.90;;;;;;5087204;28;20861;-84
2021/09/14 10:03:55;;;;;;;7.87;4.50;;;18.10;99.90;;;;;;5082260;28;20968;-83
2021/09/14 10:06:23;;;;;;;4.07;3.60;;;18.20;99.90;;;;;;5083414;28;20433;-83
2021/09/14 10:08:53;;;;;;;6.10;5.33;;;18.10;99.90;;;;;;5082949;28;20449;-84
2021/09/14 10:11:27;;;;;;;6.43;4.50;;;18.30;99.90;;;;;;5088230;28;20456;-82
2021/09/14 10:14:06;;;;;;;7.20;3.47;;;18.30;99.90;;;;;;5098409;28;20495;-83
2021/09/14 10:16:36;;;;;;;4.90;4.40;;;18.40;99.90;;;;;;5097999;28;20406;-82
2021/09/14 10:19:10;;;;;;;8.17;5.17;;;18.10;99.90;;;;;;5098171;28;20441;-82
2021/09/14 10:21:37;;;;;;;6.93;5.40;;;18.30;99.90;;;;;;5097568;28;20437;-81
2021/09/14 10:24:04;;;;;;;4.30;3.90;;;18.50;99.90;;;;;;5099546;28;20545;-83
2021/09/14 10:26:35;;;;;;;4.73;4.33;;;18.70;99.90;;;;;;5098488;28;20444;-83
2021/09/14 10:29:13;;;;;;;5.73;5.13;;;18.60;99.90;;;;;;5097715;28;20441;-82
2021/09/14 10:31:41;;;;;;;8.87;5.87;;;18.80;99.90;;;;;;5087215;28;20429;-83
2021/09/14 10:34:10;;;;;;;5.23;3.23;;;18.70;99.90;;;;;;5085219;28;20461;-84
2021/09/14 10:36:40;;;;;;;3.67;3.00;;;18.80;99.90;;;;;;5084572;28;20449;-84
2021/09/14 10:39:09;;;;;;;5.67;3.60;;;18.70;99.90;;;;;;5083257;28;20902;-83
2021/09/14 10:41:37;;;;;;;3.77;3.10;;;18.80;99.90;;;;;;5083207;28;20449;-84
2021/09/14 10:44:07;;;;;;;4.87;3.60;;;18.80;99.90;;;;;;5082042;28;20464;-84
2021/09/14 10:46:34;;;;;;;3.43;3.13;;;18.80;99.90;;;;;;5082251;28;20498;-83
2021/09/14 10:49:13;;;;;;;6.13;3.67;;;18.80;99.90;;;;;;5080654;28;20448;-83
2021/09/14 10:51:40;;;;;;;7.70;4.63;;;19.20;99.90;;;;;;5083030;28;20447;-83
2021/09/14 10:54:07;;;;;;;4.50;3.80;;;19.10;99.90;;;;;;5088092;28;20468;-83
2021/09/14 10:56:33;;;;;;;7.30;4.37;;;18.90;99.90;;;;;;5087355;28;20441;-82
2021/09/14 10:59:00;;;;;;;6.30;4.77;;;19.10;99.90;;;;;;5088951;28;20929;-83
2021/09/14 11:01:26;;;;;;;5.40;4.20;;;19.30;99.90;;;;;;5092812;28;20468;-83
2021/09/14 11:04:07;;;;;;;4.20;3.83;;;19.20;99.90;;;;;;5091544;28;20453;-82
2021/09/14 11:06:33;;;;;;;6.70;5.10;;;19.30;99.90;;;;;;5090016;28;20497;-82
2021/09/14 11:09:01;;;;;;;6.70;5.10;;;19.30;99.90;;;;;;5090187;28;20843;-84
2021/09/14 11:11:28;;;;;;;4.90;4.17;;;19.40;99.90;;;;;;5084750;28;20446;-84
2021/09/14 11:13:55;;;;;;;5.00;4.50;;;19.50;99.90;;;;;;5083675;28;20481;-84
2021/09/14 11:16:22;;;;;;;5.90;4.60;;;19.60;99.90;;;;;;5083809;28;20445;-83
2021/09/14 11:18:49;;;;;;;4.20;3.90;;;19.60;99.90;;;;;;5083185;28;20442;-83
2021/09/14 11:21:19;;;;;;;6.57;5.70;;;19.70;99.90;;;;;;5083044;28;20445;-83
2021/09/14 11:23:48;;;;;;;4.97;4.23;;;19.40;99.90;;;;;;5081536;28;20532;-83
2021/09/14 11:26:16;;;;;;;7.30;3.80;;;19.80;99.90;;;;;;5081765;28;20485;-83
2021/09/14 11:28:54;;;;;;;6.40;5.30;;;19.80;99.90;;;;;;5081943;28;20446;-83
2021/09/14 11:31:21;;;;;;;6.00;4.20;;;19.80;99.90;;;;;;5086918;28;20429;-83
2021/09/14 11:33:49;;;;;;;5.60;4.27;;;19.70;99.90;;;;;;5083599;28;20477;-84
2021/09/14 11:36:17;;;;;;;5.93;4.73;;;19.70;99.90;;;;;;5086358;28;20445;-83
2021/09/14 11:38:44;;;;;;;5.57;4.40;;;19.40;99.90;;;;;;5093230;28;20434;-83
2021/09/14 11:41:12;;;;;;;5.13;4.27;;;19.50;99.90;;;;;;5094803;28;20520;-83
2021/09/14 11:43:41;;;;;;;4.70;4.40;;;19.60;99.90;;;;;;5098607;28;20453;-84
2021/09/14 11:46:16;;;;;;;4.80;4.40;;;19.80;99.90;;;;;;5097062;28;20477;-83
2021/09/14 11:48:54;;;;;;;6.63;5.83;;;19.80;99.90;;;;;;5095667;28;20420;-83
2021/09/14 11:51:22;;;;;;;5.43;4.20;;;20.10;99.90;;;;;;5093093;28;20489;-84
2021/09/14 11:53:51;;;;;;;29.77;20.87;;;19.90;99.90;;;;;;5083662;28;20567;-84
2021/09/14 11:56:20;;;;;;;5.23;4.00;;;19.90;99.90;;;;;;5082428;28;20448;-84
2021/09/14 11:58:48;;;;;;;5.50;4.53;;;19.80;99.90;;;;;;5081019;28;20446;-85
2021/09/14 12:01:16;;;;;;;4.27;3.87;;;20.00;99.90;;;;;;5084580;28;20825;-83
2021/09/14 12:03:46;;;;;;;6.77;4.50;;;20.10;99.90;;;;;;5085175;28;20465;-83
2021/09/14 12:06:21;;;;;;;5.53;4.33;;;20.50;99.90;;;;;;5086063;28;20480;-83
2021/09/14 12:08:52;;;;;;;8.03;4.43;;;20.50;99.90;;;;;;5088001;28;20433;-83
2021/09/14 12:11:32;;;;;;;7.03;4.00;;;20.10;99.90;;;;;;5086663;28;20430;-83
2021/09/14 12:14:01;;;;;;;5.57;4.20;;;19.90;99.90;;;;;;5086228;23;20501;-87
2021/09/14 12:16:29;;;;;;;4.57;4.20;;;19.90;99.90;;;;;;5058321;28;20450;-87
2021/09/14 12:18:56;;;;;;;6.70;6.07;;;19.90;99.90;;;;;;5062158;28;20438;-87
2021/09/14 12:21:23;;;;;;;5.23;4.70;;;19.90;99.90;;;;;;5061892;28;20444;-86
2021/09/14 12:23:52;;;;;;;5.53;4.73;;;19.80;99.90;;;;;;5063127;28;20443;-86
2021/09/14 12:26:20;;;;;;;3.90;3.60;;;19.80;99.90;;;;;;5037420;28;20527;-87
2021/09/14 12:28:47;;;;;;;5.10;4.57;;;19.80;99.90;;;;;;5038649;28;20475;-86
2021/09/14 12:31:14;;;;;;;5.40;4.17;;;20.00;99.90;;;;;;5040088;28;20455;-88
2021/09/14 12:33:40;;;;;;;7.53;4.80;;;20.00;99.90;;;;;;5043220;28;20517;-87
2021/09/14 12:36:07;;;;;;;9.43;5.30;;;20.10;99.90;;;;;;5047800;28;20440;-86
2021/09/14 12:38:33;;;;;;;6.37;5.67;;;20.20;99.90;;;;;;5039872;28;20471;-87
2021/09/14 12:41:02;;;;;;;5.17;4.67;;;20.10;99.90;;;;;;5053561;28;20435;-85
2021/09/14 12:43:29;;;;;;;7.90;6.17;;;20.10;99.90;;;;;;5056507;28;20466;-88
2021/09/14 12:45:55;;;;;;;5.90;4.90;;;20.40;99.90;;;;;;5055662;28;20490;-88
2021/09/14 12:48:22;;;;;;;4.87;4.37;;;20.40;99.90;;;;;;5058002;28;20478;-89
2021/09/14 12:50:48;;;;;;;5.63;5.00;;;20.30;99.90;;;;;;5057116;28;20469;-88
2021/09/14 12:53:15;;;;;;;7.43;5.67;;;20.60;99.90;;;;;;5045827;28;20467;-87
2021/09/14 12:55:42;;;;;;;8.60;5.37;;;20.10;99.90;;;;;;5042568;28;20497;-87
2021/09/14 12:58:11;;;;;;;9.00;5.10;;;20.40;99.90;;;;;;5046129;28;20443;-86
2021/09/14 13:00:38;;;;;;;6.50;4.43;;;20.30;99.90;;;;;;5043135;28;20456;-88
2021/09/14 13:03:05;;;;;;;4.93;4.53;;;20.00;99.90;;;;;;5041631;28;20447;-87
2021/09/14 13:05:33;;;;;;;5.13;4.73;;;20.40;99.90;;;;;;5041362;28;20483;-87
2021/09/14 13:08:00;;;;;;;9.07;5.10;;;20.50;99.90;;;;;;5039117;28;20439;-87
2021/09/14 13:10:27;;;;;;;8.60;7.03;;;20.90;99.90;;;;;;5041562;28;20501;-87
2021/09/14 13:18:20;;;;;;;7.03;6.23;;;20.40;99.90;;;;;;5054968;28;20521;-87
2021/09/14 13:20:47;;;;;;;6.70;6.10;;;20.50;99.90;;;;;;5054696;28;20482;-87
2021/09/14 13:23:13;;;;;;;7.90;4.73;;;20.50;99.90;;;;;;5060107;28;20469;-88
2021/09/14 13:25:42;;;;;;;4.10;3.73;;;20.10;99.90;;;;;;5058198;28;20470;-87
2021/09/14 13:28:08;;;;;;;5.00;4.50;;;19.70;99.90;;;;;;5052473;28;20473;-87
2021/09/14 13:30:36;;;;;;;4.50;4.10;;;20.20;99.90;;;;;;5052362;28;20451;-87
2021/09/14 13:33:03;;;;;;;5.57;5.00;;;20.30;99.90;;;;;;5051024;28;20450;-87
2021/09/14 13:35:30;;;;;;;5.40;4.90;;;20.30;99.90;;;;;;5052097;28;20447;-86
2021/09/14 13:37:57;;;;;;;4.40;4.10;;;19.60;99.90;;;;;;5054396;28;20455;-86
2021/09/14 13:40:24;;;;;;;4.77;4.37;;;;;;;;;;5053778;28;20512;-87
2021/09/14 13:42:56;;;;;;;4.27;3.90;;;20.40;99.90;;;;;;5051485;28;20999;-88
2021/09/14 13:48:08;;;;;;;5.07;4.67;;;20.30;99.90;;;;;;5054751;28;20446;-87
2021/09/14 13:50:36;;;;;;;6.30;4.23;;;20.30;99.90;;;;;;5055936;28;20470;-86
2021/09/14 13:53:03;;;;;;;6.47;5.87;;;20.60;99.90;;;;;;5054649;28;20473;-87
2021/09/14 13:55:29;;;;;;;9.10;5.73;;;20.40;99.90;;;;;;5053080;28;20439;-87
2021/09/14 13:57:56;;;;;;;6.03;4.97;;;20.60;99.90;;;;;;5053227;28;20525;-87
2021/09/14 14:00:22;;;;;;;5.57;5.10;;;20.50;99.90;;;;;;5053076;28;20447;-87
2021/09/14 14:02:50;;;;;;;5.13;4.63;;;20.20;99.90;;;;;;5054145;28;20443;-88
2021/09/14 14:05:18;;;;;;;4.80;4.40;;;19.70;99.90;;;;;;5053829;28;20543;-86
2021/09/14 14:07:44;;;;;;;4.97;4.50;;;20.50;99.90;;;;;;5053079;28;20455;-87
2021/09/14 14:10:12;;;;;;;5.67;5.13;;;20.60;99.90;;;;;;5053878;28;20455;-87
2021/09/14 14:12:38;;;;;;;4.67;4.37;;;20.50;99.90;;;;;;5055118;28;20782;-86
2021/09/14 14:15:06;;;;;;;5.00;4.10;;;20.60;99.90;;;;;;5053605;28;20463;-87
2021/09/14 14:17:33;;;;;;;4.70;4.30;;;20.60;99.90;;;;;;5052484;28;20455;-87
2021/09/14 14:19:59;;;;;;;4.73;4.17;;;20.50;99.90;;;;;;5050753;28;20507;-87
2021/09/14 14:22:27;;;;;;;4.40;4.00;;;20.10;99.90;;;;;;5053868;28;20443;-88
2021/09/14 14:24:54;;;;;;;4.67;4.27;;;20.50;99.90;;;;;;5056668;28;20471;-87
2021/09/14 14:27:23;;;;;;;9.50;4.63;;;20.40;99.90;;;;;;5057703;28;20471;-88
2021/09/14 14:29:49;;;;;;;6.37;5.77;;;20.50;99.90;;;;;;5056769;28;20466;-87
2021/09/14 14:32:16;;;;;;;4.50;4.10;;;20.40;99.90;;;;;;5054434;28;20474;-86
2021/09/14 14:34:42;;;;;;;4.60;4.30;;;20.40;99.90;;;;;;5055828;28;20451;-89
2021/09/14 14:37:09;;;;;;;7.73;4.00;;;19.60;99.90;;;;;;5056737;28;20451;-87
2021/09/14 14:39:37;;;;;;;5.37;4.93;;;20.50;99.90;;;;;;5056800;28;20500;-86
2021/09/14 14:42:03;;;;;;;7.07;6.37;;;20.40;99.90;;;;;;5056199;28;20497;-87
2021/09/14 14:44:30;;;;;;;7.10;6.27;;;21.20;99.90;;;;;;5055056;28;20467;-87
2021/09/14 14:46:57;;;;;;;6.07;5.57;;;20.10;99.90;;;;;;5055801;28;20479;-87
2021/09/14 14:49:24;;;;;;;6.33;5.00;;;;;;;;;;5055715;28;20454;-87
2021/09/14 14:51:51;;;;;;;5.20;4.80;;;;;;;;;;5054304;28;20447;-87
2021/09/14 14:54:17;;;;;;;8.03;4.87;;;20.50;99.90;;;;;;5052945;28;20463;-87
2021/09/14 14:56:45;;;;;;;6.50;4.87;;;20.40;99.90;;;;;;5051450;28;20435;-88
2021/09/14 14:59:12;;;;;;;8.93;5.60;;;20.40;99.90;;;;;;5052207;28;20459;-87
2021/09/14 15:01:39;;;;;;;7.40;6.80;;;20.50;99.90;;;;;;5051730;28;20497;-87
2021/09/14 15:04:06;;;;;;;7.30;6.13;;;20.50;99.90;;;;;;5050968;28;20471;-87
2021/09/14 15:06:32;;;;;;;8.07;6.07;;;20.40;99.90;;;;;;5051788;28;20478;-88
2021/09/14 15:08:59;;;;;;;5.73;5.23;;;20.60;99.90;;;;;;5052625;28;20473;-87
2021/09/14 15:11:25;;;;;;;6.17;5.67;;;20.50;99.90;;;;;;5050126;28;20463;-87
2021/09/14 15:13:53;;;;;;;6.80;6.20;;;20.00;99.90;;;;;;5051055;28;20513;-87
2021/09/14 15:16:20;;;;;;;7.67;6.50;;;20.60;99.90;;;;;;5052241;28;20440;-87
2021/09/14 15:18:46;;;;;;;6.37;5.77;;;20.60;99.90;;;;;;5052025;28;20454;-87
2021/09/14 15:21:13;;;;;;;7.30;6.40;;;20.40;99.90;;;;;;5053112;28;20474;-88
2021/09/14 15:23:40;;;;;;;4.93;4.53;;;20.40;99.90;;;;;;5053943;28;20459;-87
2021/09/14 15:26:06;;;;;;;7.37;5.90;;;20.60;99.90;;;;;;5053242;28;20494;-88
2021/09/14 15:28:33;;;;;;;6.00;5.50;;;20.20;99.90;;;;;;5054394;28;20474;-86
2021/09/14 15:31:01;;;;;;;5.23;4.83;;;20.60;99.90;;;;;;5055243;28;20431;-87
2021/09/14 15:33:28;;;;;;;5.90;5.30;;;20.60;99.90;;;;;;5055158;28;20566;-87
2021/09/14 15:35:55;;;;;;;9.07;7.37;;;20.30;99.90;;;;;;5052895;28;20534;-87
2021/09/14 15:38:24;;;;;;;6.30;5.70;;;20.50;99.90;;;;;;5053529;28;20454;-87
2021/09/14 15:40:53;;;;;;;6.17;5.60;;;20.10;99.90;;;;;;5058006;28;20431;-88
2021/09/14 15:43:22;;;;;;;6.17;4.73;;;20.30;99.90;;;;;;5056761;28;20456;-87
2021/09/14 15:45:50;;;;;;;9.70;6.97;;;20.50;99.90;;;;;;5055313;28;20486;-89
2021/09/14 15:48:18;;;;;;;6.10;5.60;;;20.50;99.90;;;;;;5056926;28;20478;-90
2021/09/14 15:50:46;;;;;;;7.63;6.20;;;20.10;99.90;;;;;;5056090;28;20438;-87
2021/09/14 15:53:13;;;;;;;7.50;6.53;;;20.60;99.90;;;;;;5057713;28;20462;-87
2021/09/14 15:55:40;;;;;;;7.10;6.10;;;20.60;99.90;;;;;;5057904;28;20526;-87
2021/09/14 15:58:06;;;;;;;7.27;6.57;;;20.10;99.90;;;;;;5054958;28;20458;-88
2021/09/14 16:00:34;;;;;;;7.30;6.07;;;20.60;99.90;;;;;;5058404;28;20447;-90
2021/09/14 16:03:02;;;;;;;6.17;5.57;;;20.50;99.90;;;;;;5058463;28;20439;-90
2021/09/14 16:05:31;;;;;;;6.07;5.60;;;20.70;99.90;;;;;;5055944;28;20447;-90
2021/09/14 16:07:58;;;;;;;5.80;5.30;;;20.50;99.90;;;;;;5055657;28;20441;-87
2021/09/14 16:10:26;;;;;;;6.07;5.47;;;20.70;99.90;;;;;;5056184;28;20450;-87
2021/09/14 16:12:52;;;;;;;6.50;5.97;;;20.20;99.90;;;;;;5054373;28;20423;-87
2021/09/14 16:15:19;;;;;;;5.30;4.80;;;20.20;99.90;;;;;;5055146;28;20461;-88
2021/09/14 16:17:46;;;;;;;5.93;5.43;;;;;;;;;;5053958;28;20461;-87
2021/09/14 16:20:14;;;;;;;9.03;6.07;;;20.40;99.90;;;;;;5054000;28;20200;-87
2021/09/14 16:22:43;;;;;;;6.53;5.93;;;20.20;99.90;;;;;;5054089;28;20447;-88
2021/09/14 16:25:11;;;;;;;6.00;5.40;;;20.30;99.90;;;;;;5053239;28;20470;-88
2021/09/14 16:27:38;;;;;;;6.87;6.17;;;;;;;;;;5051851;28;20436;-87
2021/09/14 16:30:06;;;;;;;10.87;7.30;;;20.30;99.90;;;;;;5052940;28;20442;-88
2021/09/14 16:32:33;;;;;;;5.27;4.87;;;;;;;;;;5052875;28;20454;-87
2021/09/14 16:35:00;;;;;;;5.93;5.40;;;20.20;99.90;;;;;;5052952;28;20489;-87
2021/09/14 16:37:27;;;;;;;6.03;5.40;;;;;;;;;;5054206;28;20529;-87